createdAt,value
2023-03-10T00:01:39.729Z,99165.00
2023-03-10T00:04:09.001Z,99169.00
2023-03-10T00:06:39.516Z,99176.00
2023-03-10T00:09:09.256Z,99180.00
2023-03-10T00:11:38.762Z,99185.00
2023-03-10T00:14:08.004Z,99193.00
2023-03-10T00:16:37.315Z,99194.00
2023-03-10T00:19:06.595Z,99193.00
2023-03-10T00:21:36.732Z,99197.00
2023-03-10T00:24:06.125Z,99202.00
2023-03-10T00:26:35.465Z,99198.00
2023-03-10T00:29:05.784Z,99205.00
2023-03-10T00:31:35.732Z,99206.00
2023-03-10T00:34:06.101Z,99211.00
2023-03-10T00:36:36.040Z,99205.00
2023-03-10T00:39:06.377Z,99215.00
2023-03-10T00:41:40.078Z,99216.00
2023-03-10T00:44:10.604Z,99219.00
2023-03-10T00:46:39.867Z,99218.00
2023-03-10T00:49:10.135Z,99225.00
2023-03-10T00:51:39.309Z,99221.00
2023-03-10T00:54:08.524Z,99220.00
2023-03-10T00:56:37.915Z,99228.00
2023-03-10T00:59:07.985Z,99231.00
2023-03-10T01:01:41.448Z,99223.00
2023-03-10T01:04:23.064Z,99230.00
2023-03-10T01:06:52.331Z,99233.00
2023-03-10T01:09:21.554Z,99237.00
2023-03-10T01:11:50.819Z,99250.00
2023-03-10T01:14:21.301Z,99245.00
2023-03-10T01:16:50.587Z,99242.00
2023-03-10T01:19:19.855Z,99242.00
2023-03-10T01:21:49.191Z,99243.00
2023-03-10T01:24:20.860Z,99246.00
2023-03-10T01:26:50.104Z,99247.00
2023-03-10T01:29:19.569Z,99245.00
2023-03-10T01:31:48.750Z,99241.00
2023-03-10T01:34:17.903Z,99245.00
2023-03-10T01:36:47.021Z,99242.00
2023-03-10T01:39:16.164Z,99248.00
2023-03-10T01:41:45.285Z,99248.00
2023-03-10T01:44:20.128Z,99243.00
2023-03-10T01:46:53.180Z,99247.00
2023-03-10T01:49:46.233Z,99251.00
2023-03-10T01:52:25.988Z,99256.00
2023-03-10T01:55:08.127Z,99265.00
2023-03-10T01:57:45.646Z,99267.00
2023-03-10T02:00:17.093Z,99265.00
2023-03-10T02:03:12.474Z,99269.00
2023-03-10T02:05:49.153Z,99272.00
2023-03-10T02:08:21.065Z,99272.00
2023-03-10T02:10:52.873Z,99274.00
2023-03-10T02:13:21.923Z,99280.00
2023-03-10T02:15:51.497Z,99284.00
2023-03-10T02:18:23.307Z,99289.00
2023-03-10T02:21:32.001Z,99287.00
2023-03-10T02:24:19.985Z,99278.00
2023-03-10T02:27:27.171Z,99282.00
2023-03-10T02:30:05.054Z,99288.00
2023-03-10T02:32:43.185Z,99283.00
2023-03-10T02:35:13.596Z,99281.00
2023-03-10T02:37:44.927Z,99278.00
2023-03-10T02:40:40.924Z,99284.00
2023-03-10T02:43:42.479Z,99285.00
2023-03-10T02:46:11.863Z,99279.00
2023-03-10T02:48:44.803Z,99279.00
2023-03-10T02:51:30.378Z,99274.00
2023-03-10T02:54:01.299Z,99267.00
2023-03-10T02:56:35.306Z,99263.00
2023-03-10T02:59:08.436Z,99267.00
2023-03-10T03:01:37.658Z,99260.00
2023-03-10T03:04:07.192Z,99262.00
2023-03-10T03:06:36.885Z,99274.00
2023-03-10T03:09:06.187Z,99267.00
2023-03-10T03:11:35.416Z,99265.00
2023-03-10T03:14:04.548Z,99262.00
2023-03-10T03:16:33.695Z,99258.00
2023-03-10T03:19:02.851Z,99267.00
2023-03-10T03:21:33.371Z,99260.00
2023-03-10T03:24:02.470Z,99262.00
2023-03-10T03:26:31.601Z,99251.00
2023-03-10T03:29:01.297Z,99237.00
2023-03-10T03:31:30.437Z,99237.00
2023-03-10T03:33:59.604Z,99235.00
2023-03-10T03:36:28.768Z,99241.00
2023-03-10T03:38:58.172Z,99239.00
2023-03-10T03:41:27.352Z,99227.00
2023-03-10T03:43:56.458Z,99235.00
2023-03-10T03:46:25.690Z,99230.00
2023-03-10T03:48:54.882Z,99227.00
2023-03-10T03:51:23.931Z,99221.00
2023-03-10T03:53:53.164Z,99220.00
2023-03-10T03:56:22.281Z,99217.00
2023-03-10T03:58:51.388Z,99214.00
2023-03-10T04:01:20.790Z,99217.00
2023-03-10T04:03:49.977Z,99203.00
2023-03-10T04:06:19.327Z,99201.00
2023-03-10T04:08:51.457Z,99197.00
2023-03-10T04:11:20.896Z,99197.00
2023-03-10T04:13:49.993Z,99185.00
2023-03-10T04:16:19.245Z,99192.00
2023-03-10T04:18:48.441Z,99184.00
2023-03-10T04:21:18.553Z,99177.00
2023-03-10T04:23:47.862Z,99177.00
2023-03-10T04:26:16.936Z,99172.00
2023-03-10T04:28:47.511Z,99164.00
2023-03-10T04:31:19.530Z,99154.00
2023-03-10T04:33:49.191Z,99155.00
2023-03-10T04:36:21.533Z,99147.00
2023-03-10T04:38:50.706Z,99151.00
2023-03-10T04:41:19.955Z,99133.00
2023-03-10T04:43:49.143Z,99127.00
2023-03-10T04:46:18.918Z,99123.00
2023-03-10T04:48:48.806Z,99123.00
2023-03-10T04:51:17.930Z,99127.00
2023-03-10T04:53:47.056Z,99112.00
2023-03-10T04:56:16.493Z,99107.00
2023-03-10T04:58:46.021Z,99095.00
2023-03-10T05:01:17.450Z,99096.00
2023-03-10T05:03:46.697Z,99096.00
2023-03-10T05:06:19.725Z,99095.00
2023-03-10T05:08:49.354Z,99089.00
2023-03-10T05:11:18.859Z,99079.00
2023-03-10T05:13:48.423Z,99082.00
2023-03-10T05:16:21.265Z,99075.00
2023-03-10T05:18:50.437Z,99067.00
2023-03-10T05:21:19.628Z,99071.00
2023-03-10T05:23:48.870Z,99061.00
2023-03-10T05:26:18.784Z,99057.00
2023-03-10T05:28:49.129Z,99047.00
2023-03-10T05:31:27.150Z,99057.00
2023-03-10T05:33:57.103Z,99040.00
2023-03-10T05:36:26.541Z,99028.00
2023-03-10T05:38:55.763Z,99021.00
2023-03-10T05:41:25.170Z,99010.00
2023-03-10T05:43:54.387Z,99008.00
2023-03-10T05:46:23.641Z,99007.00
2023-03-10T05:48:53.017Z,99001.00
2023-03-10T05:51:22.489Z,98995.00
2023-03-10T05:53:51.734Z,98997.00
2023-03-10T05:56:22.270Z,98985.00
2023-03-10T05:58:54.168Z,98983.00
2023-03-10T06:01:23.397Z,98977.00
2023-03-10T06:03:52.644Z,98976.00
2023-03-10T06:06:22.015Z,98968.00
2023-03-10T06:08:51.396Z,98961.00
2023-03-10T06:11:20.763Z,98959.00
2023-03-10T06:13:50.049Z,98954.00
2023-03-10T06:16:19.482Z,98947.00
2023-03-10T06:18:48.764Z,98946.00
2023-03-10T06:21:18.047Z,98933.00
2023-03-10T06:23:47.334Z,98931.00
2023-03-10T06:26:18.780Z,98923.00
2023-03-10T06:28:49.037Z,98913.00
2023-03-10T06:31:23.242Z,98923.00
2023-03-10T06:33:53.379Z,98913.00
2023-03-10T06:36:27.039Z,98915.00
2023-03-10T06:38:57.010Z,98913.00
2023-03-10T06:41:28.880Z,98910.00
2023-03-10T06:43:58.166Z,98909.00
2023-03-10T06:46:27.553Z,98897.00
2023-03-10T06:48:57.191Z,98904.00
2023-03-10T06:51:26.398Z,98894.00
2023-03-10T06:53:56.151Z,98890.00
2023-03-10T06:56:25.626Z,98883.00
2023-03-10T06:58:54.780Z,98877.00
2023-03-10T07:01:34.491Z,98870.00
2023-03-10T07:04:04.350Z,98864.00
2023-03-10T07:06:33.801Z,98867.00
2023-03-10T07:09:03.015Z,98857.00
2023-03-10T07:11:32.806Z,98855.00
2023-03-10T07:14:02.181Z,98851.00
2023-03-10T07:16:31.507Z,98841.00
2023-03-10T07:19:00.712Z,98838.00
2023-03-10T07:21:29.906Z,98833.00
2023-03-10T07:24:00.457Z,98828.00
2023-03-10T07:26:29.942Z,98826.00
2023-03-10T07:28:59.551Z,98820.00
2023-03-10T07:31:29.482Z,98803.00
2023-03-10T07:33:58.582Z,98801.00
2023-03-10T07:36:28.151Z,98800.00
2023-03-10T07:38:58.073Z,98795.00
2023-03-10T07:41:27.372Z,98794.00
2023-03-10T07:43:57.202Z,98783.00
2023-03-10T07:46:26.424Z,98773.00
2023-03-10T07:48:57.309Z,98777.00
2023-03-10T07:51:26.726Z,98771.00
2023-03-10T07:53:55.798Z,98764.00
2023-03-10T07:56:25.249Z,98751.00
2023-03-10T07:58:54.447Z,98756.00
2023-03-10T08:01:24.227Z,98759.00
2023-03-10T08:03:55.286Z,98753.00
2023-03-10T08:06:29.542Z,98750.00
2023-03-10T08:08:59.254Z,98743.00
2023-03-10T08:11:28.643Z,98742.00
2023-03-10T08:13:57.814Z,98734.00
2023-03-10T08:16:27.635Z,98740.00
2023-03-10T08:18:56.896Z,98738.00
2023-03-10T08:21:26.033Z,98733.00
2023-03-10T08:23:55.159Z,98736.00
2023-03-10T08:26:24.274Z,98726.00
2023-03-10T08:28:54.120Z,98728.00
2023-03-10T08:31:24.092Z,98727.00
2023-03-10T08:33:58.211Z,98732.00
2023-03-10T08:36:32.622Z,98723.00
2023-03-10T08:39:02.283Z,98727.00
2023-03-10T08:41:45.237Z,98724.00
2023-03-10T08:44:18.918Z,98716.00
2023-03-10T08:46:50.839Z,98720.00
2023-03-10T08:49:28.029Z,98718.00
2023-03-10T08:51:57.299Z,98719.00
2023-03-10T08:54:26.460Z,98723.00
2023-03-10T08:56:55.730Z,98723.00
2023-03-10T08:59:24.814Z,98730.00
2023-03-10T09:01:54.056Z,98720.00
2023-03-10T09:04:23.368Z,98714.00
2023-03-10T09:06:52.714Z,98718.00
2023-03-10T09:09:21.817Z,98715.00
2023-03-10T09:11:50.970Z,98717.00
2023-03-10T09:14:21.131Z,98717.00
2023-03-10T09:16:50.828Z,98708.00
2023-03-10T09:19:20.056Z,98711.00
2023-03-10T09:21:49.292Z,98706.00
2023-03-10T09:24:20.950Z,98707.00
2023-03-10T09:26:50.295Z,98711.00
2023-03-10T09:29:27.023Z,98706.00
2023-03-10T09:32:08.498Z,98706.00
2023-03-10T09:34:37.840Z,98708.00
2023-03-10T09:37:08.495Z,98700.00
2023-03-10T09:39:37.822Z,98699.00
2023-03-10T09:42:25.478Z,98702.00
2023-03-10T09:45:21.525Z,98702.00
2023-03-10T09:48:34.639Z,98694.00
2023-03-10T09:51:17.773Z,98703.00
2023-03-10T09:54:08.721Z,98687.00
2023-03-10T09:56:39.309Z,98699.00
2023-03-10T09:59:26.301Z,98699.00
2023-03-10T10:01:56.348Z,98694.00
2023-03-10T10:04:40.639Z,98702.00
2023-03-10T10:07:25.621Z,98705.00
2023-03-10T10:10:31.362Z,98699.00
2023-03-10T10:13:12.260Z,98695.00
2023-03-10T10:16:31.667Z,98706.00
2023-03-10T10:19:11.385Z,98705.00
2023-03-10T10:21:51.249Z,98711.00
2023-03-10T10:24:22.064Z,98707.00
2023-03-10T10:26:51.239Z,98713.00
2023-03-10T10:29:27.052Z,98712.00
2023-03-10T10:32:17.566Z,98716.00
2023-03-10T10:34:50.157Z,98711.00
2023-03-10T10:37:39.375Z,98719.00
2023-03-10T10:40:29.358Z,98708.00
2023-03-10T10:43:06.745Z,98717.00
2023-03-10T10:45:41.684Z,98725.00
2023-03-10T10:48:42.070Z,98716.00
2023-03-10T10:51:33.461Z,98726.00
2023-03-10T10:54:29.980Z,98728.00
2023-03-10T10:57:03.565Z,98729.00
2023-03-10T10:59:37.360Z,98730.00
2023-03-10T11:02:34.875Z,98727.00
2023-03-10T11:05:39.618Z,98719.00
2023-03-10T11:08:35.842Z,98726.00
2023-03-10T11:11:34.964Z,98719.00
2023-03-10T11:14:38.176Z,98732.00
2023-03-10T11:17:29.546Z,98745.00
2023-03-10T11:20:28.392Z,98743.00
2023-03-10T11:23:35.822Z,98749.00
2023-03-10T11:26:38.462Z,98749.00
2023-03-10T11:29:34.852Z,98751.00
2023-03-10T11:32:27.315Z,98758.00
2023-03-10T11:34:56.596Z,98761.00
2023-03-10T11:37:41.606Z,98762.00
2023-03-10T11:40:50.594Z,98769.00
2023-03-10T11:43:57.982Z,98764.00
2023-03-10T11:46:40.361Z,98762.00
2023-03-10T11:49:13.321Z,98771.00
2023-03-10T11:52:00.132Z,98773.00
2023-03-10T11:55:02.895Z,98778.00
2023-03-10T11:57:42.951Z,98777.00
2023-03-10T12:00:43.673Z,98777.00
2023-03-10T12:03:43.521Z,98779.00
2023-03-10T12:06:38.122Z,98780.00
2023-03-10T12:09:13.105Z,98792.00
2023-03-10T12:11:42.386Z,98797.00
2023-03-10T12:14:16.060Z,98805.00
2023-03-10T12:16:46.817Z,98799.00
2023-03-10T12:19:15.979Z,98806.00
2023-03-10T12:21:45.624Z,98809.00
2023-03-10T12:25:02.238Z,98816.00
2023-03-10T12:27:31.755Z,98818.00
2023-03-10T12:30:01.999Z,98821.00
2023-03-10T12:32:48.658Z,98828.00
2023-03-10T12:35:44.481Z,98830.00
2023-03-10T12:38:52.000Z,98828.00
2023-03-10T12:41:30.291Z,98831.00
2023-03-10T12:44:29.586Z,98839.00
2023-03-10T12:47:10.903Z,98848.00
2023-03-10T12:49:43.246Z,98842.00
2023-03-10T12:52:40.679Z,98838.00
2023-03-10T12:55:29.157Z,98834.00
2023-03-10T12:58:22.072Z,98834.00
2023-03-10T13:01:16.279Z,98838.00
2023-03-10T13:03:53.968Z,98834.00
2023-03-10T13:06:34.480Z,98841.00
2023-03-10T13:09:23.032Z,98846.00
2023-03-10T13:12:07.086Z,98853.00
2023-03-10T13:14:42.451Z,98864.00
2023-03-10T13:17:33.849Z,98865.00
2023-03-10T13:20:18.334Z,98872.00
2023-03-10T13:23:01.059Z,98876.00
2023-03-10T13:25:30.501Z,98871.00
2023-03-10T13:28:09.595Z,98878.00
2023-03-10T13:30:39.245Z,98880.00
2023-03-10T13:33:28.327Z,98880.00
2023-03-10T13:35:57.537Z,98881.00
2023-03-10T13:38:26.783Z,98888.00
2023-03-10T13:41:06.042Z,98879.00
2023-03-10T13:43:40.550Z,98892.00
2023-03-10T13:46:27.398Z,98897.00
2023-03-10T13:49:04.790Z,98898.00
2023-03-10T13:51:38.252Z,98896.00
2023-03-10T13:54:23.549Z,98904.00
2023-03-10T13:57:19.006Z,98910.00
2023-03-10T13:59:49.633Z,98918.00
2023-03-10T14:02:41.137Z,98925.00
2023-03-10T14:05:48.397Z,98927.00
2023-03-10T14:08:33.727Z,98925.00
2023-03-10T14:11:26.655Z,98921.00
2023-03-10T14:13:55.864Z,98931.00
2023-03-10T14:16:58.037Z,98932.00
2023-03-10T14:19:43.774Z,98932.00
2023-03-10T14:22:38.954Z,98941.00
2023-03-10T14:25:14.725Z,98938.00
2023-03-10T14:28:07.678Z,98941.00
2023-03-10T14:30:37.264Z,98945.00
2023-03-10T14:33:17.136Z,98946.00
2023-03-10T14:35:47.149Z,98953.00
2023-03-10T14:38:16.964Z,98952.00
2023-03-10T14:40:52.758Z,98959.00
2023-03-10T14:43:28.751Z,98961.00
2023-03-10T14:46:06.832Z,98962.00
2023-03-10T14:48:42.866Z,98959.00
2023-03-10T14:51:34.572Z,98972.00
2023-03-10T14:54:04.926Z,98968.00
2023-03-10T14:56:35.123Z,98969.00
2023-03-10T14:59:04.537Z,98965.00
2023-03-10T15:01:33.797Z,98962.00
2023-03-10T15:04:03.017Z,98968.00
2023-03-10T15:06:32.240Z,98961.00
2023-03-10T15:09:02.144Z,98968.00
2023-03-10T15:11:37.460Z,98966.00
2023-03-10T15:14:16.766Z,98963.00
2023-03-10T15:16:47.027Z,98967.00
2023-03-10T15:19:27.660Z,98964.00
2023-03-10T15:21:57.171Z,98965.00
2023-03-10T15:24:26.402Z,98962.00
2023-03-10T15:26:55.610Z,98959.00
2023-03-10T15:29:24.923Z,98958.00
2023-03-10T15:31:54.171Z,98959.00
2023-03-10T15:34:23.341Z,98964.00
2023-03-10T15:36:52.630Z,98959.00
2023-03-10T15:39:31.161Z,98956.00
2023-03-10T15:42:01.611Z,98962.00
2023-03-10T15:44:31.226Z,98963.00
2023-03-10T15:47:00.470Z,98962.00
2023-03-10T15:49:29.796Z,98964.00
2023-03-10T15:51:59.376Z,98958.00
2023-03-10T15:54:28.586Z,98968.00
2023-03-10T15:56:57.851Z,98968.00
2023-03-10T15:59:28.688Z,98962.00
2023-03-10T16:01:58.107Z,98960.00
2023-03-10T16:04:27.393Z,98963.00
2023-03-10T16:06:56.560Z,98960.00
2023-03-10T16:09:25.729Z,98957.00
2023-03-10T16:11:55.061Z,98959.00
2023-03-10T16:14:27.207Z,98949.00
2023-03-10T16:16:56.601Z,98948.00
2023-03-10T16:19:27.332Z,98944.00
2023-03-10T16:21:56.624Z,98946.00
2023-03-10T16:24:26.033Z,98945.00
2023-03-10T16:26:55.236Z,98945.00
2023-03-10T16:29:24.861Z,98950.00
2023-03-10T16:31:55.116Z,98946.00
2023-03-10T16:34:24.290Z,98940.00
2023-03-10T16:36:54.459Z,98933.00
2023-03-10T16:39:25.228Z,98938.00
2023-03-10T16:41:54.403Z,98933.00
2023-03-10T16:44:23.563Z,98930.00
2023-03-10T16:46:52.829Z,98934.00
2023-03-10T16:49:22.060Z,98937.00
2023-03-10T16:51:51.153Z,98927.00
2023-03-10T16:54:23.297Z,98929.00
2023-03-10T16:56:57.902Z,98928.00
2023-03-10T16:59:27.408Z,98933.00
2023-03-10T17:01:56.497Z,98933.00
2023-03-10T17:04:25.916Z,98937.00
2023-03-10T17:06:55.187Z,98931.00
2023-03-10T17:09:24.388Z,98927.00
2023-03-10T17:11:55.585Z,98928.00
2023-03-10T17:14:25.229Z,98930.00
2023-03-10T17:16:56.933Z,98925.00
2023-03-10T17:19:30.723Z,98930.00
2023-03-10T17:22:00.363Z,98926.00
2023-03-10T17:24:30.467Z,98921.00
2023-03-10T17:26:59.640Z,98921.00
2023-03-10T17:29:28.811Z,98922.00
2023-03-10T17:31:57.951Z,98926.00
2023-03-10T17:34:28.085Z,98933.00
2023-03-10T17:36:57.270Z,98936.00
2023-03-10T17:39:28.527Z,98934.00
2023-03-10T17:41:57.722Z,98933.00
2023-03-10T17:44:26.952Z,98936.00
2023-03-10T17:46:57.211Z,98929.00
2023-03-10T17:49:26.343Z,98924.00
2023-03-10T17:51:55.458Z,98931.00
2023-03-10T17:54:24.729Z,98935.00
2023-03-10T17:56:54.037Z,98933.00
2023-03-10T17:59:23.119Z,98930.00
2023-03-10T18:01:52.293Z,98933.00
2023-03-10T18:04:21.491Z,98928.00
2023-03-10T18:06:50.615Z,98927.00
2023-03-10T18:09:19.691Z,98938.00
2023-03-10T18:11:48.826Z,98931.00
2023-03-10T18:14:17.996Z,98935.00
2023-03-10T18:16:47.136Z,98919.00
2023-03-10T18:19:22.139Z,98923.00
2023-03-10T18:21:53.407Z,98920.00
2023-03-10T18:24:23.405Z,98915.00
2023-03-10T18:26:52.740Z,98912.00
2023-03-10T18:29:22.545Z,98908.00
2023-03-10T18:31:51.678Z,98911.00
2023-03-10T18:34:21.145Z,98913.00
2023-03-10T18:36:53.385Z,98907.00
2023-03-10T18:39:22.486Z,98901.00
2023-03-10T18:41:56.144Z,98894.00
2023-03-10T18:44:25.232Z,98898.00
2023-03-10T18:46:54.365Z,98896.00
2023-03-10T18:49:23.429Z,98894.00
2023-03-10T18:51:52.636Z,98894.00
2023-03-10T18:54:21.760Z,98883.00
2023-03-10T18:56:51.049Z,98881.00
2023-03-10T18:59:20.176Z,98878.00
2023-03-10T19:01:49.416Z,98870.00
2023-03-10T19:04:19.375Z,98865.00
2023-03-10T19:06:48.796Z,98866.00
2023-03-10T19:09:20.228Z,98871.00
2023-03-10T19:11:50.997Z,98867.00
2023-03-10T19:14:20.122Z,98858.00
2023-03-10T19:16:51.246Z,98855.00
2023-03-10T19:19:20.386Z,98853.00
2023-03-10T19:21:49.571Z,98848.00
2023-03-10T19:24:18.858Z,98848.00
2023-03-10T19:26:48.826Z,98835.00
2023-03-10T19:29:18.731Z,98840.00
2023-03-10T19:31:48.259Z,98846.00
2023-03-10T19:34:18.529Z,98842.00
2023-03-10T19:36:47.849Z,98840.00
2023-03-10T19:39:17.974Z,98836.00
2023-03-10T19:41:47.225Z,98834.00
2023-03-10T19:44:16.405Z,98836.00
2023-03-10T19:46:45.717Z,98836.00
2023-03-10T19:49:14.998Z,98840.00
2023-03-10T19:51:44.156Z,98840.00
2023-03-10T19:54:13.474Z,98843.00
2023-03-10T19:56:42.696Z,98839.00
2023-03-10T19:59:12.004Z,98841.00
2023-03-10T20:01:43.059Z,98834.00
2023-03-10T20:04:13.038Z,98829.00
2023-03-10T20:06:42.755Z,98830.00
2023-03-10T20:09:12.490Z,98834.00
2023-03-10T20:11:43.128Z,98834.00
2023-03-10T20:14:12.618Z,98830.00
2023-03-10T20:16:41.887Z,98833.00
2023-03-10T20:19:11.533Z,98826.00
2023-03-10T20:21:42.538Z,98825.00
2023-03-10T20:24:11.728Z,98822.00
2023-03-10T20:26:40.951Z,98827.00
2023-03-10T20:29:10.335Z,98828.00
2023-03-10T20:31:39.734Z,98835.00
2023-03-10T20:34:16.503Z,98833.00
2023-03-10T20:36:46.667Z,98833.00
2023-03-10T20:39:15.883Z,98827.00
2023-03-10T20:41:45.215Z,98831.00
2023-03-10T20:44:15.155Z,98828.00
2023-03-10T20:46:46.195Z,98829.00
2023-03-10T20:49:15.467Z,98828.00
2023-03-10T20:51:44.645Z,98831.00
2023-03-10T20:54:13.888Z,98832.00
2023-03-10T20:56:43.142Z,98823.00
2023-03-10T20:59:13.083Z,98827.00
2023-03-10T21:01:43.420Z,98822.00
2023-03-10T21:04:12.763Z,98821.00
2023-03-10T21:06:42.029Z,98817.00
2023-03-10T21:09:11.425Z,98822.00
2023-03-10T21:11:41.577Z,98818.00
2023-03-10T21:14:10.745Z,98818.00
2023-03-10T21:16:42.973Z,98819.00
2023-03-10T21:19:14.805Z,98821.00
2023-03-10T21:21:44.112Z,98819.00
2023-03-10T21:24:13.649Z,98813.00
2023-03-10T21:26:42.868Z,98823.00
2023-03-10T21:29:12.376Z,98819.00
2023-03-10T21:31:42.317Z,98818.00
2023-03-10T21:34:11.418Z,98820.00
2023-03-10T21:36:40.567Z,98824.00
2023-03-10T21:39:09.996Z,98824.00
2023-03-10T21:41:39.138Z,98831.00
2023-03-10T21:44:08.500Z,98830.00
2023-03-10T21:46:37.801Z,98837.00
2023-03-10T21:49:06.984Z,98846.00
2023-03-10T21:51:37.208Z,98840.00
2023-03-10T21:54:06.500Z,98848.00
2023-03-10T21:56:37.536Z,98844.00
2023-03-10T21:59:08.310Z,98846.00
2023-03-10T22:01:37.682Z,98845.00
2023-03-10T22:04:06.878Z,98857.00
2023-03-10T22:06:36.024Z,98857.00
2023-03-10T22:09:05.652Z,98861.00
2023-03-10T22:11:35.173Z,98872.00
2023-03-10T22:14:04.781Z,98870.00
2023-03-10T22:16:34.063Z,98877.00
2023-03-10T22:19:03.333Z,98880.00
2023-03-10T22:21:32.520Z,98886.00
2023-03-10T22:24:01.600Z,98881.00
2023-03-10T22:26:30.696Z,98881.00
2023-03-10T22:29:01.333Z,98899.00
2023-03-10T22:31:30.564Z,98898.00
2023-03-10T22:33:59.662Z,98906.00
2023-03-10T22:36:29.252Z,98904.00
2023-03-10T22:38:58.509Z,98905.00
2023-03-10T22:41:28.836Z,98896.00
2023-03-10T22:43:58.081Z,98903.00
2023-03-10T22:46:27.197Z,98901.00
2023-03-10T22:48:56.261Z,98908.00
2023-03-10T22:51:25.444Z,98909.00
2023-03-10T22:53:54.700Z,98912.00
2023-03-10T22:56:23.998Z,98909.00
2023-03-10T22:58:53.081Z,98915.00
2023-03-10T23:01:22.738Z,98905.00
2023-03-10T23:03:51.953Z,98920.00
2023-03-10T23:06:21.302Z,98920.00
2023-03-10T23:08:50.604Z,98925.00
2023-03-10T23:11:19.689Z,98937.00
2023-03-10T23:13:49.168Z,98938.00
2023-03-10T23:16:20.595Z,98934.00
2023-03-10T23:18:49.773Z,98937.00
2023-03-10T23:21:18.976Z,98940.00
2023-03-10T23:23:49.085Z,98946.00
2023-03-10T23:26:18.178Z,98943.00
2023-03-10T23:28:48.347Z,98941.00
2023-03-10T23:31:18.242Z,98942.00
2023-03-10T23:33:47.876Z,98936.00
2023-03-10T23:36:16.965Z,98946.00
2023-03-10T23:38:46.063Z,98955.00
2023-03-10T23:41:15.476Z,98959.00
2023-03-10T23:43:44.567Z,98961.00
2023-03-10T23:46:13.867Z,98976.00
2023-03-10T23:48:43.042Z,98968.00
2023-03-10T23:51:23.882Z,98968.00
2023-03-10T23:53:53.006Z,98981.00
2023-03-10T23:56:22.184Z,98984.00
2023-03-10T23:58:51.366Z,98980.00
